KOLZ

Oelwein Municipal Airport

Oelwein, Iowa, USA
METAR KOLZ 182135Z AUTO 00000KT 10SM FEW044 BKN050 OVC070 28/19 A3002 RMK AO2
Observed Flight Rules
Aug-18 @ 21:35 UTC (19 minutes ago) Visual Flight Rules
Visibility Clouds
10 miles
  • Few at 4,400' AGL
  • Broken at 5,000' AGL
  • Overcast at 7,000' AGL
Temperatures Readings
Current 28°C / 82°F
Dewpoint 19°C / 66°F
Humidity 58%
Altimeter 30.02" Hg
Pressure 1017 hPa
Elevation 328
METAR KOLZ 182135Z AUTO 00000KT 10SM FEW044 BKN050 OVC070 28/19 A3002 RMK AO2
Observed Flight Rules
Aug-18 @ 21:35 UTC
(19 minutes ago)
VFR
Clouds
  • Few at 4,400' AGL
  • Broken at 5,000' AGL
  • Overcast at 7,000' AGL
Temperature Dewpoint
28°C / 82°F 19°C / 66°F
Humidity Altimeter Pressure
58% 30.02" Hg 1017 hPa